sensor_id;sensor_type;location;lat;lon;timestamp;P1;durP1;ratioP1;P2;durP2;ratioP2
35797;SDS011;21918;49.940;7.774;2022-07-04T00:02:21;0.90;;;0.80;;
35797;SDS011;21918;49.940;7.774;2022-07-04T00:04:49;1.63;;;1.00;;
35797;SDS011;21918;49.940;7.774;2022-07-04T00:07:16;2.05;;;1.10;;
35797;SDS011;21918;49.940;7.774;2022-07-04T00:09:42;2.55;;;0.95;;
35797;SDS011;21918;49.940;7.774;2022-07-04T00:12:09;2.47;;;1.08;;
35797;SDS011;21918;49.940;7.774;2022-07-04T00:14:36;1.50;;;1.10;;
35797;SDS011;21918;49.940;7.774;2022-07-04T00:17:03;5.80;;;1.48;;
35797;SDS011;21918;49.940;7.774;2022-07-04T00:19:30;1.80;;;1.15;;
35797;SDS011;21918;49.940;7.774;2022-07-04T00:22:08;1.45;;;1.23;;
35797;SDS011;21918;49.940;7.774;2022-07-04T00:24:35;1.70;;;0.98;;
35797;SDS011;21918;49.940;7.774;2022-07-04T00:27:02;1.17;;;1.00;;
35797;SDS011;21918;49.940;7.774;2022-07-04T00:29:29;1.45;;;1.02;;
35797;SDS011;21918;49.940;7.774;2022-07-04T00:31:56;1.83;;;1.15;;
35797;SDS011;21918;49.940;7.774;2022-07-04T00:34:23;4.05;;;1.38;;
35797;SDS011;21918;49.940;7.774;2022-07-04T00:36:49;1.45;;;1.08;;
35797;SDS011;21918;49.940;7.774;2022-07-04T00:39:17;1.67;;;1.10;;
35797;SDS011;21918;49.940;7.774;2022-07-04T00:41:44;1.67;;;1.52;;
35797;SDS011;21918;49.940;7.774;2022-07-04T00:44:12;1.70;;;1.60;;
35797;SDS011;21918;49.940;7.774;2022-07-04T00:46:40;1.30;;;1.15;;
35797;SDS011;21918;49.940;7.774;2022-07-04T00:49:08;1.90;;;1.15;;
35797;SDS011;21918;49.940;7.774;2022-07-04T00:51:48;3.92;;;1.52;;
35797;SDS011;21918;49.940;7.774;2022-07-04T00:54:15;1.42;;;1.33;;
35797;SDS011;21918;49.940;7.774;2022-07-04T00:56:46;3.95;;;1.38;;
35797;SDS011;21918;49.940;7.774;2022-07-04T00:59:12;1.88;;;1.50;;
35797;SDS011;21918;49.940;7.774;2022-07-04T01:01:39;1.42;;;1.30;;
35797;SDS011;21918;49.940;7.774;2022-07-04T01:04:06;4.93;;;1.02;;
35797;SDS011;21918;49.940;7.774;2022-07-04T01:06:33;1.35;;;1.25;;
35797;SDS011;21918;49.940;7.774;2022-07-04T01:09:00;1.02;;;1.00;;
35797;SDS011;21918;49.940;7.774;2022-07-04T01:11:29;1.42;;;1.33;;
35797;SDS011;21918;49.940;7.774;2022-07-04T01:13:55;2.38;;;1.00;;
35797;SDS011;21918;49.940;7.774;2022-07-04T01:16:24;3.78;;;1.58;;
35797;SDS011;21918;49.940;7.774;2022-07-04T01:18:51;1.08;;;0.82;;
35797;SDS011;21918;49.940;7.774;2022-07-04T01:21:19;3.35;;;1.50;;
35797;SDS011;21918;49.940;7.774;2022-07-04T01:23:47;2.97;;;1.20;;
35797;SDS011;21918;49.940;7.774;2022-07-04T01:26:14;1.27;;;1.17;;
35797;SDS011;21918;49.940;7.774;2022-07-04T01:28:41;2.95;;;1.33;;
35797;SDS011;21918;49.940;7.774;2022-07-04T01:31:07;1.45;;;1.35;;
35797;SDS011;21918;49.940;7.774;2022-07-04T01:33:34;2.53;;;1.17;;
35797;SDS011;21918;49.940;7.774;2022-07-04T01:36:01;1.35;;;1.17;;
35797;SDS011;21918;49.940;7.774;2022-07-04T01:38:29;2.88;;;1.35;;
35797;SDS011;21918;49.940;7.774;2022-07-04T01:40:59;1.83;;;1.10;;
35797;SDS011;21918;49.940;7.774;2022-07-04T01:43:25;1.67;;;1.15;;
35797;SDS011;21918;49.940;7.774;2022-07-04T01:45:52;1.35;;;1.25;;
35797;SDS011;21918;49.940;7.774;2022-07-04T01:48:19;1.70;;;1.48;;
35797;SDS011;21918;49.940;7.774;2022-07-04T01:50:46;2.55;;;1.50;;
35797;SDS011;21918;49.940;7.774;2022-07-04T01:53:12;1.48;;;1.20;;
35797;SDS011;21918;49.940;7.774;2022-07-04T01:55:40;1.40;;;1.30;;
35797;SDS011;21918;49.940;7.774;2022-07-04T01:58:07;2.80;;;1.20;;
35797;SDS011;21918;49.940;7.774;2022-07-04T02:00:34;2.22;;;1.20;;
35797;SDS011;21918;49.940;7.774;2022-07-04T02:03:18;2.78;;;1.02;;
35797;SDS011;21918;49.940;7.774;2022-07-04T02:05:44;1.85;;;1.08;;
35797;SDS011;21918;49.940;7.774;2022-07-04T02:08:11;2.00;;;1.40;;
35797;SDS011;21918;49.940;7.774;2022-07-04T02:10:38;1.38;;;1.05;;
35797;SDS011;21918;49.940;7.774;2022-07-04T02:13:06;0.98;;;0.95;;
35797;SDS011;21918;49.940;7.774;2022-07-04T02:15:33;2.80;;;1.40;;
35797;SDS011;21918;49.940;7.774;2022-07-04T02:18:02;2.17;;;1.30;;
35797;SDS011;21918;49.940;7.774;2022-07-04T02:20:30;1.40;;;1.20;;
35797;SDS011;21918;49.940;7.774;2022-07-04T02:22:57;1.58;;;1.10;;
35797;SDS011;21918;49.940;7.774;2022-07-04T02:25:24;2.00;;;1.30;;
35797;SDS011;21918;49.940;7.774;2022-07-04T02:27:51;4.18;;;1.23;;
35797;SDS011;21918;49.940;7.774;2022-07-04T02:30:19;1.38;;;1.27;;
35797;SDS011;21918;49.940;7.774;2022-07-04T02:32:46;1.63;;;1.50;;
35797;SDS011;21918;49.940;7.774;2022-07-04T02:35:13;3.65;;;1.50;;
35797;SDS011;21918;49.940;7.774;2022-07-04T02:37:40;3.92;;;1.40;;
35797;SDS011;21918;49.940;7.774;2022-07-04T02:40:07;2.08;;;1.25;;
35797;SDS011;21918;49.940;7.774;2022-07-04T02:42:35;1.85;;;1.60;;
35797;SDS011;21918;49.940;7.774;2022-07-04T02:45:03;1.48;;;1.33;;
35797;SDS011;21918;49.940;7.774;2022-07-04T02:47:31;2.58;;;1.55;;
35797;SDS011;21918;49.940;7.774;2022-07-04T02:49:59;1.27;;;1.05;;
35797;SDS011;21918;49.940;7.774;2022-07-04T02:52:27;3.55;;;1.77;;
35797;SDS011;21918;49.940;7.774;2022-07-04T02:54:54;5.53;;;1.50;;
35797;SDS011;21918;49.940;7.774;2022-07-04T02:57:21;1.98;;;1.38;;
35797;SDS011;21918;49.940;7.774;2022-07-04T02:59:48;1.75;;;1.23;;
35797;SDS011;21918;49.940;7.774;2022-07-04T03:02:15;2.70;;;1.65;;
35797;SDS011;21918;49.940;7.774;2022-07-04T03:04:43;1.67;;;1.45;;
35797;SDS011;21918;49.940;7.774;2022-07-04T03:07:10;5.80;;;1.40;;
35797;SDS011;21918;49.940;7.774;2022-07-04T03:09:36;3.13;;;1.20;;
35797;SDS011;21918;49.940;7.774;2022-07-04T03:12:03;2.78;;;1.45;;
35797;SDS011;21918;49.940;7.774;2022-07-04T03:14:31;1.30;;;1.20;;
35797;SDS011;21918;49.940;7.774;2022-07-04T03:16:58;2.17;;;1.42;;
35797;SDS011;21918;49.940;7.774;2022-07-04T03:19:24;2.58;;;1.45;;
35797;SDS011;21918;49.940;7.774;2022-07-04T03:21:53;1.15;;;1.13;;
35797;SDS011;21918;49.940;7.774;2022-07-04T03:24:19;1.30;;;1.17;;
35797;SDS011;21918;49.940;7.774;2022-07-04T03:26:46;1.85;;;1.40;;
35797;SDS011;21918;49.940;7.774;2022-07-04T03:29:13;3.08;;;1.50;;
35797;SDS011;21918;49.940;7.774;2022-07-04T03:31:39;2.00;;;1.35;;
35797;SDS011;21918;49.940;7.774;2022-07-04T03:34:06;1.67;;;1.58;;
35797;SDS011;21918;49.940;7.774;2022-07-04T03:36:33;1.48;;;1.38;;
35797;SDS011;21918;49.940;7.774;2022-07-04T03:39:01;1.27;;;1.17;;
35797;SDS011;21918;49.940;7.774;2022-07-04T03:41:29;2.30;;;1.50;;
35797;SDS011;21918;49.940;7.774;2022-07-04T03:43:56;1.40;;;1.30;;
35797;SDS011;21918;49.940;7.774;2022-07-04T03:46:22;1.40;;;1.30;;
35797;SDS011;21918;49.940;7.774;2022-07-04T03:48:49;2.67;;;1.45;;
35797;SDS011;21918;49.940;7.774;2022-07-04T03:51:16;2.75;;;1.67;;
35797;SDS011;21918;49.940;7.774;2022-07-04T03:53:43;2.67;;;1.40;;
35797;SDS011;21918;49.940;7.774;2022-07-04T03:56:11;1.38;;;1.23;;
35797;SDS011;21918;49.940;7.774;2022-07-04T03:58:39;4.30;;;1.50;;
35797;SDS011;21918;49.940;7.774;2022-07-04T04:01:07;1.73;;;0.95;;
35797;SDS011;21918;49.940;7.774;2022-07-04T04:03:34;3.45;;;1.58;;
35797;SDS011;21918;49.940;7.774;2022-07-04T04:06:18;1.77;;;1.38;;
35797;SDS011;21918;49.940;7.774;2022-07-04T04:08:45;1.95;;;1.30;;
35797;SDS011;21918;49.940;7.774;2022-07-04T04:11:13;3.92;;;1.70;;
35797;SDS011;21918;49.940;7.774;2022-07-04T04:13:40;1.98;;;1.65;;
35797;SDS011;21918;49.940;7.774;2022-07-04T04:16:09;1.55;;;1.27;;
35797;SDS011;21918;49.940;7.774;2022-07-04T04:18:36;2.38;;;1.10;;
35797;SDS011;21918;49.940;7.774;2022-07-04T04:21:03;1.45;;;1.35;;
35797;SDS011;21918;49.940;7.774;2022-07-04T04:23:30;1.30;;;1.10;;
35797;SDS011;21918;49.940;7.774;2022-07-04T04:25:57;3.45;;;1.08;;
35797;SDS011;21918;49.940;7.774;2022-07-04T04:28:25;1.85;;;1.48;;
35797;SDS011;21918;49.940;7.774;2022-07-04T04:30:52;1.27;;;1.17;;
35797;SDS011;21918;49.940;7.774;2022-07-04T04:33:19;2.50;;;1.55;;
35797;SDS011;21918;49.940;7.774;2022-07-04T04:35:45;4.20;;;1.65;;
35797;SDS011;21918;49.940;7.774;2022-07-04T04:38:12;1.00;;;1.00;;
35797;SDS011;21918;49.940;7.774;2022-07-04T04:40:39;1.63;;;1.50;;
35797;SDS011;21918;49.940;7.774;2022-07-04T04:43:06;3.53;;;1.27;;
35797;SDS011;21918;49.940;7.774;2022-07-04T04:45:34;4.72;;;1.55;;
35797;SDS011;21918;49.940;7.774;2022-07-04T04:48:01;2.83;;;0.98;;
35797;SDS011;21918;49.940;7.774;2022-07-04T04:50:27;3.28;;;1.30;;
35797;SDS011;21918;49.940;7.774;2022-07-04T04:52:54;1.45;;;1.27;;
35797;SDS011;21918;49.940;7.774;2022-07-04T04:55:22;1.65;;;1.40;;
35797;SDS011;21918;49.940;7.774;2022-07-04T04:57:49;2.08;;;1.20;;
35797;SDS011;21918;49.940;7.774;2022-07-04T05:00:16;5.28;;;1.40;;
35797;SDS011;21918;49.940;7.774;2022-07-04T05:02:45;1.65;;;1.52;;
35797;SDS011;21918;49.940;7.774;2022-07-04T05:05:11;3.13;;;1.38;;
35797;SDS011;21918;49.940;7.774;2022-07-04T05:07:38;2.13;;;1.33;;
35797;SDS011;21918;49.940;7.774;2022-07-04T05:10:05;1.27;;;1.15;;
35797;SDS011;21918;49.940;7.774;2022-07-04T05:12:34;1.40;;;1.27;;
35797;SDS011;21918;49.940;7.774;2022-07-04T05:15:01;3.38;;;1.83;;
35797;SDS011;21918;49.940;7.774;2022-07-04T05:17:27;2.22;;;1.58;;
35797;SDS011;21918;49.940;7.774;2022-07-04T05:19:56;3.95;;;1.48;;
35797;SDS011;21918;49.940;7.774;2022-07-04T05:22:22;2.88;;;1.60;;
35797;SDS011;21918;49.940;7.774;2022-07-04T05:24:49;3.97;;;1.83;;
35797;SDS011;21918;49.940;7.774;2022-07-04T05:27:16;3.85;;;1.25;;
35797;SDS011;21918;49.940;7.774;2022-07-04T05:29:43;2.95;;;1.40;;
35797;SDS011;21918;49.940;7.774;2022-07-04T05:32:10;2.97;;;1.80;;
35797;SDS011;21918;49.940;7.774;2022-07-04T05:34:36;1.15;;;1.02;;
35797;SDS011;21918;49.940;7.774;2022-07-04T05:37:05;1.92;;;1.15;;
35797;SDS011;21918;49.940;7.774;2022-07-04T05:39:31;1.67;;;1.20;;
35797;SDS011;21918;49.940;7.774;2022-07-04T05:41:59;1.45;;;1.17;;
35797;SDS011;21918;49.940;7.774;2022-07-04T05:44:25;1.15;;;1.05;;
35797;SDS011;21918;49.940;7.774;2022-07-04T05:46:53;4.25;;;1.33;;
35797;SDS011;21918;49.940;7.774;2022-07-04T05:49:20;3.33;;;1.40;;
35797;SDS011;21918;49.940;7.774;2022-07-04T05:51:47;3.50;;;1.40;;
35797;SDS011;21918;49.940;7.774;2022-07-04T05:54:15;2.13;;;1.40;;
35797;SDS011;21918;49.940;7.774;2022-07-04T05:56:42;3.40;;;1.38;;
35797;SDS011;21918;49.940;7.774;2022-07-04T05:59:09;6.90;;;2.08;;
35797;SDS011;21918;49.940;7.774;2022-07-04T06:01:36;3.72;;;1.02;;
35797;SDS011;21918;49.940;7.774;2022-07-04T06:04:04;1.85;;;1.13;;
35797;SDS011;21918;49.940;7.774;2022-07-04T06:06:32;3.20;;;1.55;;
35797;SDS011;21918;49.940;7.774;2022-07-04T06:09:00;2.95;;;1.25;;
35797;SDS011;21918;49.940;7.774;2022-07-04T06:11:29;1.67;;;1.52;;
35797;SDS011;21918;49.940;7.774;2022-07-04T06:13:56;2.22;;;1.45;;
35797;SDS011;21918;49.940;7.774;2022-07-04T06:16:23;3.70;;;1.67;;
35797;SDS011;21918;49.940;7.774;2022-07-04T06:18:50;4.95;;;1.95;;
35797;SDS011;21918;49.940;7.774;2022-07-04T06:21:17;2.03;;;1.58;;
35797;SDS011;21918;49.940;7.774;2022-07-04T06:23:43;3.47;;;2.50;;
35797;SDS011;21918;49.940;7.774;2022-07-04T06:26:10;1.77;;;1.35;;
35797;SDS011;21918;49.940;7.774;2022-07-04T06:28:38;2.20;;;2.00;;
35797;SDS011;21918;49.940;7.774;2022-07-04T06:31:05;5.97;;;2.15;;
35797;SDS011;21918;49.940;7.774;2022-07-04T06:33:32;7.15;;;1.88;;
35797;SDS011;21918;49.940;7.774;2022-07-04T06:36:19;2.50;;;1.58;;
35797;SDS011;21918;49.940;7.774;2022-07-04T06:38:45;3.85;;;1.63;;
35797;SDS011;21918;49.940;7.774;2022-07-04T06:41:11;2.78;;;1.33;;
35797;SDS011;21918;49.940;7.774;2022-07-04T06:43:40;2.58;;;1.45;;
35797;SDS011;21918;49.940;7.774;2022-07-04T06:46:07;4.25;;;1.88;;
35797;SDS011;21918;49.940;7.774;2022-07-04T06:48:34;3.42;;;1.20;;
35797;SDS011;21918;49.940;7.774;2022-07-04T06:51:01;2.60;;;1.52;;
35797;SDS011;21918;49.940;7.774;2022-07-04T06:53:28;2.33;;;1.55;;
35797;SDS011;21918;49.940;7.774;2022-07-04T06:55:55;2.97;;;1.55;;
35797;SDS011;21918;49.940;7.774;2022-07-04T06:58:21;4.38;;;1.60;;
35797;SDS011;21918;49.940;7.774;2022-07-04T07:00:50;2.80;;;1.40;;
35797;SDS011;21918;49.940;7.774;2022-07-04T07:03:16;2.45;;;1.20;;
35797;SDS011;21918;49.940;7.774;2022-07-04T07:05:43;2.45;;;1.40;;
35797;SDS011;21918;49.940;7.774;2022-07-04T07:08:10;3.30;;;0.80;;
35797;SDS011;21918;49.940;7.774;2022-07-04T07:10:37;2.63;;;1.05;;
35797;SDS011;21918;49.940;7.774;2022-07-04T07:13:04;1.80;;;0.95;;
35797;SDS011;21918;49.940;7.774;2022-07-04T07:15:31;2.25;;;1.13;;
35797;SDS011;21918;49.940;7.774;2022-07-04T07:18:01;3.42;;;0.90;;
35797;SDS011;21918;49.940;7.774;2022-07-04T07:20:28;0.80;;;0.80;;
35797;SDS011;21918;49.940;7.774;2022-07-04T07:22:55;0.70;;;0.70;;
35797;SDS011;21918;49.940;7.774;2022-07-04T07:25:22;0.90;;;0.75;;
35797;SDS011;21918;49.940;7.774;2022-07-04T07:27:49;0.80;;;0.77;;
35797;SDS011;21918;49.940;7.774;2022-07-04T07:30:15;4.07;;;1.10;;
35797;SDS011;21918;49.940;7.774;2022-07-04T07:32:42;1.55;;;1.13;;
35797;SDS011;21918;49.940;7.774;2022-07-04T07:35:10;3.60;;;1.02;;
35797;SDS011;21918;49.940;7.774;2022-07-04T07:37:38;2.40;;;0.70;;
35797;SDS011;21918;49.940;7.774;2022-07-04T07:40:05;1.48;;;0.98;;
35797;SDS011;21918;49.940;7.774;2022-07-04T07:42:33;1.85;;;0.60;;
35797;SDS011;21918;49.940;7.774;2022-07-04T07:45:00;1.23;;;0.95;;
35797;SDS011;21918;49.940;7.774;2022-07-04T07:47:26;0.52;;;0.52;;
35797;SDS011;21918;49.940;7.774;2022-07-04T07:49:53;0.60;;;0.57;;
35797;SDS011;21918;49.940;7.774;2022-07-04T07:52:22;1.15;;;0.82;;
35797;SDS011;21918;49.940;7.774;2022-07-04T07:54:48;1.33;;;0.88;;
35797;SDS011;21918;49.940;7.774;2022-07-04T07:57:15;2.22;;;0.95;;
35797;SDS011;21918;49.940;7.774;2022-07-04T07:59:42;1.65;;;0.90;;
35797;SDS011;21918;49.940;7.774;2022-07-04T08:02:09;2.63;;;0.85;;
35797;SDS011;21918;49.940;7.774;2022-07-04T08:07:06;1.25;;;0.80;;
35797;SDS011;21918;49.940;7.774;2022-07-04T08:09:36;1.85;;;0.98;;
35797;SDS011;21918;49.940;7.774;2022-07-04T08:12:03;2.88;;;1.38;;
35797;SDS011;21918;49.940;7.774;2022-07-04T08:14:32;1.67;;;0.80;;
35797;SDS011;21918;49.940;7.774;2022-07-04T08:17:00;3.00;;;1.30;;
35797;SDS011;21918;49.940;7.774;2022-07-04T08:19:27;1.35;;;1.00;;
35797;SDS011;21918;49.940;7.774;2022-07-04T08:21:54;1.55;;;0.80;;
35797;SDS011;21918;49.940;7.774;2022-07-04T08:24:21;0.82;;;0.73;;
35797;SDS011;21918;49.940;7.774;2022-07-04T08:26:50;4.05;;;1.00;;
35797;SDS011;21918;49.940;7.774;2022-07-04T08:29:17;2.67;;;1.02;;
35797;SDS011;21918;49.940;7.774;2022-07-04T08:31:44;1.50;;;0.60;;
35797;SDS011;21918;49.940;7.774;2022-07-04T08:34:11;2.95;;;1.05;;
35797;SDS011;21918;49.940;7.774;2022-07-04T08:36:38;2.35;;;0.82;;
35797;SDS011;21918;49.940;7.774;2022-07-04T08:39:04;1.20;;;0.93;;
35797;SDS011;21918;49.940;7.774;2022-07-04T08:41:34;0.75;;;0.70;;
35797;SDS011;21918;49.940;7.774;2022-07-04T08:44:06;2.88;;;0.80;;
35797;SDS011;21918;49.940;7.774;2022-07-04T08:46:36;2.20;;;0.70;;
35797;SDS011;21918;49.940;7.774;2022-07-04T08:49:06;0.95;;;0.90;;
35797;SDS011;21918;49.940;7.774;2022-07-04T08:51:38;2.83;;;1.02;;
35797;SDS011;21918;49.940;7.774;2022-07-04T08:54:10;2.05;;;0.98;;
35797;SDS011;21918;49.940;7.774;2022-07-04T08:56:52;2.15;;;1.08;;
35797;SDS011;21918;49.940;7.774;2022-07-04T08:59:38;3.80;;;1.10;;
35797;SDS011;21918;49.940;7.774;2022-07-04T09:02:10;1.73;;;1.13;;
35797;SDS011;21918;49.940;7.774;2022-07-04T09:04:39;1.25;;;0.70;;
35797;SDS011;21918;49.940;7.774;2022-07-04T09:07:09;2.05;;;0.80;;
35797;SDS011;21918;49.940;7.774;2022-07-04T09:09:37;3.05;;;0.80;;
35797;SDS011;21918;49.940;7.774;2022-07-04T09:12:05;1.35;;;0.93;;
35797;SDS011;21918;49.940;7.774;2022-07-04T09:14:32;2.42;;;0.82;;
35797;SDS011;21918;49.940;7.774;2022-07-04T09:17:02;1.05;;;0.90;;
35797;SDS011;21918;49.940;7.774;2022-07-04T09:19:30;4.10;;;0.95;;
35797;SDS011;21918;49.940;7.774;2022-07-04T09:21:58;3.47;;;1.15;;
35797;SDS011;21918;49.940;7.774;2022-07-04T09:24:45;2.92;;;0.80;;
35797;SDS011;21918;49.940;7.774;2022-07-04T09:27:15;2.22;;;1.00;;
35797;SDS011;21918;49.940;7.774;2022-07-04T09:29:55;2.28;;;0.80;;
35797;SDS011;21918;49.940;7.774;2022-07-04T09:32:37;3.50;;;0.80;;
35797;SDS011;21918;49.940;7.774;2022-07-04T09:35:06;1.13;;;0.85;;
35797;SDS011;21918;49.940;7.774;2022-07-04T09:37:38;4.35;;;0.77;;
35797;SDS011;21918;49.940;7.774;2022-07-04T09:40:07;2.08;;;0.95;;
35797;SDS011;21918;49.940;7.774;2022-07-04T09:42:38;3.35;;;0.82;;
35797;SDS011;21918;49.940;7.774;2022-07-04T09:45:07;1.05;;;0.93;;
35797;SDS011;21918;49.940;7.774;2022-07-04T09:47:37;3.03;;;1.20;;
35797;SDS011;21918;49.940;7.774;2022-07-04T09:50:06;3.55;;;0.75;;
35797;SDS011;21918;49.940;7.774;2022-07-04T09:52:49;1.45;;;0.80;;
35797;SDS011;21918;49.940;7.774;2022-07-04T09:55:25;0.73;;;0.65;;
35797;SDS011;21918;49.940;7.774;2022-07-04T09:57:54;1.70;;;0.90;;
35797;SDS011;21918;49.940;7.774;2022-07-04T10:00:22;3.45;;;1.00;;
35797;SDS011;21918;49.940;7.774;2022-07-04T10:02:53;1.42;;;0.65;;
35797;SDS011;21918;49.940;7.774;2022-07-04T10:05:23;0.82;;;0.60;;
35797;SDS011;21918;49.940;7.774;2022-07-04T10:07:51;1.58;;;0.70;;
35797;SDS011;21918;49.940;7.774;2022-07-04T10:10:25;1.00;;;0.82;;
35797;SDS011;21918;49.940;7.774;2022-07-04T10:12:55;1.50;;;0.80;;
35797;SDS011;21918;49.940;7.774;2022-07-04T10:15:23;3.75;;;1.00;;
35797;SDS011;21918;49.940;7.774;2022-07-04T10:17:50;1.80;;;0.65;;
35797;SDS011;21918;49.940;7.774;2022-07-04T10:20:18;0.85;;;0.60;;
35797;SDS011;21918;49.940;7.774;2022-07-04T10:22:45;0.80;;;0.80;;
35797;SDS011;21918;49.940;7.774;2022-07-04T10:25:12;2.25;;;0.85;;
35797;SDS011;21918;49.940;7.774;2022-07-04T10:27:40;1.23;;;0.85;;
35797;SDS011;21918;49.940;7.774;2022-07-04T10:30:08;1.65;;;0.50;;
35797;SDS011;21918;49.940;7.774;2022-07-04T10:32:37;1.23;;;0.50;;
35797;SDS011;21918;49.940;7.774;2022-07-04T10:35:08;1.38;;;0.60;;
35797;SDS011;21918;49.940;7.774;2022-07-04T10:40:39;0.88;;;0.88;;
35797;SDS011;21918;49.940;7.774;2022-07-04T10:46:32;1.05;;;0.70;;
35797;SDS011;21918;49.940;7.774;2022-07-04T10:49:22;1.02;;;0.50;;
35797;SDS011;21918;49.940;7.774;2022-07-04T10:51:51;0.70;;;0.70;;
35797;SDS011;21918;49.940;7.774;2022-07-04T10:54:21;1.38;;;0.70;;
35797;SDS011;21918;49.940;7.774;2022-07-04T10:56:55;1.27;;;0.60;;
35797;SDS011;21918;49.940;7.774;2022-07-04T10:59:24;1.33;;;0.70;;
35797;SDS011;21918;49.940;7.774;2022-07-04T11:04:54;1.15;;;0.75;;
35797;SDS011;21918;49.940;7.774;2022-07-04T11:07:24;1.27;;;0.80;;
35797;SDS011;21918;49.940;7.774;2022-07-04T11:10:25;2.65;;;0.80;;
35797;SDS011;21918;49.940;7.774;2022-07-04T11:16:02;3.53;;;0.75;;
35797;SDS011;21918;49.940;7.774;2022-07-04T11:18:38;1.30;;;0.68;;
35797;SDS011;21918;49.940;7.774;2022-07-04T11:21:14;1.23;;;0.70;;
35797;SDS011;21918;49.940;7.774;2022-07-04T11:23:48;0.93;;;0.90;;
35797;SDS011;21918;49.940;7.774;2022-07-04T11:26:17;1.35;;;0.80;;
35797;SDS011;21918;49.940;7.774;2022-07-04T11:28:45;0.73;;;0.70;;
35797;SDS011;21918;49.940;7.774;2022-07-04T11:31:12;2.72;;;1.05;;
35797;SDS011;21918;49.940;7.774;2022-07-04T11:33:40;0.50;;;0.50;;
35797;SDS011;21918;49.940;7.774;2022-07-04T11:36:09;1.67;;;0.98;;
35797;SDS011;21918;49.940;7.774;2022-07-04T11:38:44;1.27;;;0.73;;
35797;SDS011;21918;49.940;7.774;2022-07-04T11:41:13;3.53;;;0.90;;
35797;SDS011;21918;49.940;7.774;2022-07-04T11:43:59;1.65;;;1.10;;
35797;SDS011;21918;49.940;7.774;2022-07-04T11:46:46;1.48;;;0.70;;
35797;SDS011;21918;49.940;7.774;2022-07-04T11:49:13;2.35;;;0.88;;
35797;SDS011;21918;49.940;7.774;2022-07-04T11:51:43;1.63;;;0.90;;
35797;SDS011;21918;49.940;7.774;2022-07-04T11:54:12;1.13;;;1.00;;
35797;SDS011;21918;49.940;7.774;2022-07-04T11:56:39;0.77;;;0.65;;
35797;SDS011;21918;49.940;7.774;2022-07-04T11:59:11;1.23;;;1.00;;
35797;SDS011;21918;49.940;7.774;2022-07-04T12:01:39;1.80;;;0.95;;
35797;SDS011;21918;49.940;7.774;2022-07-04T12:04:16;1.58;;;0.70;;
35797;SDS011;21918;49.940;7.774;2022-07-04T12:06:44;1.05;;;0.85;;
35797;SDS011;21918;49.940;7.774;2022-07-04T12:09:15;2.17;;;1.00;;
35797;SDS011;21918;49.940;7.774;2022-07-04T12:11:53;2.35;;;0.80;;
35797;SDS011;21918;49.940;7.774;2022-07-04T12:14:23;1.58;;;1.02;;
35797;SDS011;21918;49.940;7.774;2022-07-04T12:16:57;1.10;;;1.00;;
35797;SDS011;21918;49.940;7.774;2022-07-04T12:19:35;2.17;;;0.90;;
35797;SDS011;21918;49.940;7.774;2022-07-04T12:22:02;1.15;;;0.82;;
35797;SDS011;21918;49.940;7.774;2022-07-04T12:27:22;1.58;;;0.80;;
35797;SDS011;21918;49.940;7.774;2022-07-04T12:29:51;3.15;;;0.80;;
35797;SDS011;21918;49.940;7.774;2022-07-04T12:32:18;0.80;;;0.70;;
35797;SDS011;21918;49.940;7.774;2022-07-04T12:34:45;0.95;;;0.85;;
35797;SDS011;21918;49.940;7.774;2022-07-04T12:37:13;1.13;;;1.02;;
35797;SDS011;21918;49.940;7.774;2022-07-04T12:39:42;2.15;;;1.05;;
35797;SDS011;21918;49.940;7.774;2022-07-04T12:42:10;1.23;;;0.80;;
35797;SDS011;21918;49.940;7.774;2022-07-04T12:44:38;1.02;;;0.82;;
35797;SDS011;21918;49.940;7.774;2022-07-04T12:47:08;1.52;;;0.65;;
35797;SDS011;21918;49.940;7.774;2022-07-04T12:49:37;2.33;;;0.77;;
35797;SDS011;21918;49.940;7.774;2022-07-04T12:52:10;1.58;;;0.95;;
35797;SDS011;21918;49.940;7.774;2022-07-04T12:54:39;1.45;;;0.88;;
35797;SDS011;21918;49.940;7.774;2022-07-04T12:57:07;0.60;;;0.60;;
35797;SDS011;21918;49.940;7.774;2022-07-04T12:59:36;1.58;;;0.90;;
35797;SDS011;21918;49.940;7.774;2022-07-04T13:02:03;1.02;;;0.70;;
35797;SDS011;21918;49.940;7.774;2022-07-04T13:04:32;2.30;;;0.93;;
35797;SDS011;21918;49.940;7.774;2022-07-04T13:06:59;4.97;;;0.93;;
35797;SDS011;21918;49.940;7.774;2022-07-04T13:09:38;0.82;;;0.82;;
35797;SDS011;21918;49.940;7.774;2022-07-04T13:12:05;0.82;;;0.68;;
35797;SDS011;21918;49.940;7.774;2022-07-04T13:14:52;1.85;;;0.55;;
35797;SDS011;21918;49.940;7.774;2022-07-04T13:17:20;2.33;;;0.75;;
35797;SDS011;21918;49.940;7.774;2022-07-04T13:19:49;1.15;;;0.77;;
35797;SDS011;21918;49.940;7.774;2022-07-04T13:22:17;0.60;;;0.60;;
35797;SDS011;21918;49.940;7.774;2022-07-04T13:24:45;2.95;;;0.80;;
35797;SDS011;21918;49.940;7.774;2022-07-04T13:27:12;0.80;;;0.80;;
35797;SDS011;21918;49.940;7.774;2022-07-04T13:29:39;1.10;;;1.00;;
35797;SDS011;21918;49.940;7.774;2022-07-04T13:32:06;0.90;;;0.70;;
35797;SDS011;21918;49.940;7.774;2022-07-04T13:34:34;2.92;;;0.70;;
35797;SDS011;21918;49.940;7.774;2022-07-04T13:37:03;1.92;;;0.75;;
35797;SDS011;21918;49.940;7.774;2022-07-04T13:39:30;1.60;;;0.75;;
35797;SDS011;21918;49.940;7.774;2022-07-04T13:41:57;0.73;;;0.60;;
35797;SDS011;21918;49.940;7.774;2022-07-04T13:44:24;0.70;;;0.70;;
35797;SDS011;21918;49.940;7.774;2022-07-04T13:46:50;0.70;;;0.70;;
35797;SDS011;21918;49.940;7.774;2022-07-04T13:52:16;1.85;;;0.90;;
35797;SDS011;21918;49.940;7.774;2022-07-04T13:54:43;0.68;;;0.65;;
35797;SDS011;21918;49.940;7.774;2022-07-04T13:57:10;0.90;;;0.70;;
35797;SDS011;21918;49.940;7.774;2022-07-04T13:59:37;1.30;;;0.70;;
35797;SDS011;21918;49.940;7.774;2022-07-04T14:02:04;2.72;;;0.80;;
35797;SDS011;21918;49.940;7.774;2022-07-04T14:04:31;1.08;;;0.75;;
35797;SDS011;21918;49.940;7.774;2022-07-04T14:06:57;1.58;;;0.98;;
35797;SDS011;21918;49.940;7.774;2022-07-04T14:09:26;1.88;;;0.82;;
35797;SDS011;21918;49.940;7.774;2022-07-04T14:11:53;0.50;;;0.50;;
35797;SDS011;21918;49.940;7.774;2022-07-04T14:14:19;1.20;;;0.77;;
35797;SDS011;21918;49.940;7.774;2022-07-04T14:16:46;0.90;;;0.77;;
35797;SDS011;21918;49.940;7.774;2022-07-04T14:19:15;1.00;;;0.75;;
35797;SDS011;21918;49.940;7.774;2022-07-04T14:21:42;0.88;;;0.80;;
35797;SDS011;21918;49.940;7.774;2022-07-04T14:24:09;1.42;;;0.80;;
35797;SDS011;21918;49.940;7.774;2022-07-04T14:26:37;0.73;;;0.63;;
35797;SDS011;21918;49.940;7.774;2022-07-04T14:29:04;0.95;;;0.90;;
35797;SDS011;21918;49.940;7.774;2022-07-04T14:31:31;0.82;;;0.65;;
35797;SDS011;21918;49.940;7.774;2022-07-04T14:33:57;0.82;;;0.60;;
35797;SDS011;21918;49.940;7.774;2022-07-04T14:36:25;0.70;;;0.70;;
35797;SDS011;21918;49.940;7.774;2022-07-04T14:38:52;1.55;;;0.90;;
35797;SDS011;21918;49.940;7.774;2022-07-04T14:41:19;0.90;;;0.90;;
35797;SDS011;21918;49.940;7.774;2022-07-04T14:43:47;0.70;;;0.70;;
35797;SDS011;21918;49.940;7.774;2022-07-04T14:46:14;0.80;;;0.80;;
35797;SDS011;21918;49.940;7.774;2022-07-04T14:48:42;1.25;;;1.17;;
35797;SDS011;21918;49.940;7.774;2022-07-04T14:51:09;1.73;;;0.77;;
35797;SDS011;21918;49.940;7.774;2022-07-04T14:53:36;3.15;;;0.80;;
35797;SDS011;21918;49.940;7.774;2022-07-04T14:56:03;3.03;;;0.80;;
35797;SDS011;21918;49.940;7.774;2022-07-04T14:58:30;1.05;;;0.95;;
35797;SDS011;21918;49.940;7.774;2022-07-04T15:00:59;0.60;;;0.60;;
35797;SDS011;21918;49.940;7.774;2022-07-04T15:03:25;0.50;;;0.50;;
35797;SDS011;21918;49.940;7.774;2022-07-04T15:05:52;0.70;;;0.70;;
35797;SDS011;21918;49.940;7.774;2022-07-04T15:08:19;2.08;;;0.63;;
35797;SDS011;21918;49.940;7.774;2022-07-04T15:10:46;0.77;;;0.77;;
35797;SDS011;21918;49.940;7.774;2022-07-04T15:13:13;1.13;;;0.80;;
35797;SDS011;21918;49.940;7.774;2022-07-04T15:15:40;1.60;;;1.02;;
35797;SDS011;21918;49.940;7.774;2022-07-04T15:18:09;0.63;;;0.63;;